SQW weather

Skive Airport
Skive, Central Jutland, Denmark

Public forecast

Using degrees Celsius for public forecast. Weather courtesy of forecast.io.

METAR (pilot weather report)

Closest report is Karup Airport, 15.3 nm (28.3 km) S. Retrieved 2019/05/19 13:20 UTC (31 minutes ago):

EKKA 191320Z AUTO 08010KT 9999 NCD 21/14 Q1009

TAF (pilot weather forecast)

Closest forecast is Karup Airport, 15.3 nm (28.3 km) S. Retrieved 2019/05/19 12:30 UTC (1 hour ago):

TAF EKKA 191123Z 1912/2012 06008KT 9999 FEW020 TEMPO 1921/2006 3000 BR MIFG